createdAt,value
2022-07-28T00:00:17.914Z,3.95
2022-07-28T00:03:04.867Z,3.90
2022-07-28T00:05:32.024Z,3.92
2022-07-28T00:08:01.464Z,4.40
2022-07-28T00:10:28.411Z,3.70
2022-07-28T00:12:55.722Z,4.13
2022-07-28T00:15:22.666Z,4.53
2022-07-28T00:17:50.168Z,3.97
2022-07-28T00:20:17.633Z,4.18
2022-07-28T00:22:44.962Z,3.65
2022-07-28T00:25:12.575Z,3.42
2022-07-28T00:27:40.057Z,3.33
2022-07-28T00:30:07.874Z,3.30
2022-07-28T00:32:34.988Z,3.65
2022-07-28T00:35:02.505Z,3.50
2022-07-28T00:37:29.583Z,3.60
2022-07-28T00:39:57.011Z,3.55
2022-07-28T00:42:24.387Z,3.50
2022-07-28T00:44:51.588Z,3.92
2022-07-28T00:47:20.172Z,3.78
2022-07-28T00:49:48.359Z,4.03
2022-07-28T00:52:17.307Z,3.38
2022-07-28T00:54:44.371Z,3.53
2022-07-28T00:57:11.493Z,4.05
2022-07-28T00:59:38.455Z,3.30
2022-07-28T01:02:05.468Z,3.42
2022-07-28T01:04:33.300Z,3.30
2022-07-28T01:07:23.016Z,3.40
2022-07-28T01:10:03.972Z,3.67
2022-07-28T01:12:35.947Z,3.30
2022-07-28T01:15:21.799Z,3.15
2022-07-28T01:18:02.351Z,3.08
2022-07-28T01:20:36.128Z,2.85
2022-07-28T01:23:22.131Z,2.45
2022-07-28T01:26:26.971Z,3.40
2022-07-28T01:28:59.948Z,3.00
2022-07-28T01:31:32.475Z,2.70
2022-07-28T01:34:00.951Z,3.42
2022-07-28T01:36:40.639Z,2.80
2022-07-28T01:39:07.593Z,3.30
2022-07-28T01:41:36.438Z,2.90
2022-07-28T01:44:06.972Z,3.10
2022-07-28T01:46:34.273Z,3.25
2022-07-28T01:49:02.556Z,3.20
2022-07-28T01:51:31.011Z,3.63
2022-07-28T01:53:59.814Z,3.20
2022-07-28T01:56:30.718Z,3.05
2022-07-28T01:59:00.625Z,3.60
2022-07-28T02:01:28.092Z,3.45
2022-07-28T02:03:56.667Z,3.58
2022-07-28T02:06:24.013Z,3.42
2022-07-28T02:08:51.830Z,3.90
2022-07-28T02:11:37.522Z,4.30
2022-07-28T02:14:04.769Z,3.42
2022-07-28T02:16:32.308Z,3.22
2022-07-28T02:19:00.153Z,3.10
2022-07-28T02:21:28.833Z,3.40
2022-07-28T02:23:56.010Z,3.88
2022-07-28T02:26:36.890Z,4.07
2022-07-28T02:29:07.023Z,4.15
2022-07-28T02:31:41.079Z,3.83
2022-07-28T02:34:11.416Z,4.40
2022-07-28T02:36:41.672Z,4.20
2022-07-28T02:39:25.960Z,4.03
2022-07-28T02:41:59.160Z,4.10
2022-07-28T02:44:29.202Z,3.97
2022-07-28T02:46:58.368Z,4.00
2022-07-28T02:49:30.207Z,4.38
2022-07-28T02:51:58.355Z,4.38
2022-07-28T02:54:27.305Z,4.30
2022-07-28T02:56:54.841Z,3.30
2022-07-28T02:59:24.016Z,3.95
2022-07-28T03:01:51.127Z,3.95
2022-07-28T03:04:38.684Z,3.90
2022-07-28T03:07:06.109Z,4.60
2022-07-28T03:09:46.376Z,4.40
2022-07-28T03:12:13.998Z,4.25
2022-07-28T03:14:41.761Z,4.25
2022-07-28T03:17:08.848Z,3.70
2022-07-28T03:19:36.702Z,4.22
2022-07-28T03:22:04.613Z,4.40
2022-07-28T03:24:35.248Z,4.25
2022-07-28T03:27:22.224Z,4.35
2022-07-28T03:29:53.919Z,4.60
2022-07-28T03:32:23.893Z,4.43
2022-07-28T03:34:52.501Z,4.30
2022-07-28T03:37:32.493Z,4.20
2022-07-28T03:40:00.637Z,4.35
2022-07-28T03:42:28.842Z,4.47
2022-07-28T03:44:56.207Z,4.38
2022-07-28T03:47:24.223Z,5.00
2022-07-28T03:49:51.580Z,5.15
2022-07-28T03:52:19.004Z,4.95
2022-07-28T03:54:46.158Z,4.65
2022-07-28T03:57:14.196Z,4.35
2022-07-28T03:59:41.245Z,4.18
2022-07-28T04:02:08.526Z,4.28
2022-07-28T04:04:35.524Z,3.95
2022-07-28T04:07:02.629Z,4.30
2022-07-28T04:09:29.776Z,5.25
2022-07-28T04:11:56.776Z,4.18
2022-07-28T04:14:24.288Z,3.88
2022-07-28T04:16:52.115Z,4.47
2022-07-28T04:19:19.115Z,4.45
2022-07-28T04:21:46.297Z,3.63
2022-07-28T04:24:13.858Z,4.63
2022-07-28T04:26:41.095Z,3.72
2022-07-28T04:29:11.282Z,3.92
2022-07-28T04:31:38.507Z,3.67
2022-07-28T04:34:05.459Z,3.33
2022-07-28T04:36:32.943Z,3.13
2022-07-28T04:39:00.480Z,3.67
2022-07-28T04:41:27.485Z,3.47
2022-07-28T04:43:54.544Z,3.50
2022-07-28T04:46:21.790Z,3.50
2022-07-28T04:48:48.839Z,3.35
2022-07-28T04:51:15.896Z,3.30
2022-07-28T04:53:43.135Z,3.53
2022-07-28T04:56:10.112Z,3.78
2022-07-28T04:58:37.222Z,3.35
2022-07-28T05:01:05.801Z,4.93
2022-07-28T05:03:36.130Z,3.30
2022-07-28T05:06:03.580Z,2.55
2022-07-28T05:08:30.735Z,3.03
2022-07-28T05:10:57.690Z,3.05
2022-07-28T05:13:27.772Z,2.90
2022-07-28T05:15:58.908Z,3.25
2022-07-28T05:18:25.844Z,3.17
2022-07-28T05:20:52.731Z,2.88
2022-07-28T05:23:19.900Z,3.22
2022-07-28T05:25:46.856Z,3.10
2022-07-28T05:28:13.742Z,3.08
2022-07-28T05:30:40.895Z,3.30
2022-07-28T05:33:07.847Z,3.38
2022-07-28T05:35:34.779Z,2.88
2022-07-28T05:38:01.857Z,2.53
2022-07-28T05:40:30.064Z,2.33
2022-07-28T05:42:56.981Z,2.80
2022-07-28T05:45:24.590Z,2.55
2022-07-28T05:47:53.050Z,2.97
2022-07-28T05:50:24.613Z,2.35
2022-07-28T05:52:52.040Z,2.97
2022-07-28T05:55:19.474Z,2.25
2022-07-28T05:57:46.450Z,2.40
2022-07-28T06:00:16.462Z,2.38
2022-07-28T06:02:49.245Z,2.25
2022-07-28T06:05:18.775Z,2.50
2022-07-28T06:07:47.058Z,2.40
2022-07-28T06:10:16.522Z,2.20
2022-07-28T06:12:45.958Z,2.40
2022-07-28T06:15:18.661Z,2.30
2022-07-28T06:17:46.209Z,2.08
2022-07-28T06:20:14.154Z,2.13
2022-07-28T06:22:52.320Z,1.88
2022-07-28T06:25:27.824Z,1.70
2022-07-28T06:27:59.385Z,1.77
2022-07-28T06:30:27.503Z,1.60
2022-07-28T06:32:54.926Z,1.85
2022-07-28T06:35:22.171Z,1.50
2022-07-28T06:37:51.063Z,1.50
2022-07-28T06:40:19.351Z,1.80
2022-07-28T06:42:46.846Z,1.75
2022-07-28T06:45:20.870Z,1.60
2022-07-28T06:47:52.724Z,1.88
2022-07-28T06:50:25.066Z,1.63
2022-07-28T06:52:55.203Z,1.88
2022-07-28T06:55:22.459Z,1.73
2022-07-28T06:57:49.387Z,1.70
2022-07-28T07:00:16.575Z,1.83
2022-07-28T07:02:44.162Z,1.30
2022-07-28T07:05:12.480Z,1.42
2022-07-28T07:07:43.019Z,1.40
2022-07-28T07:10:11.583Z,1.30
2022-07-28T07:12:38.595Z,1.45
2022-07-28T07:15:06.297Z,1.23
2022-07-28T07:17:33.505Z,1.38
2022-07-28T07:20:00.540Z,1.40
2022-07-28T07:22:27.501Z,1.15
2022-07-28T07:24:57.121Z,1.65
2022-07-28T07:27:24.970Z,0.90
2022-07-28T07:29:51.947Z,1.10
2022-07-28T07:32:19.182Z,1.25
2022-07-28T07:34:46.186Z,1.27
2022-07-28T07:37:14.707Z,1.30
2022-07-28T07:39:41.943Z,1.13
2022-07-28T07:42:09.169Z,1.65
2022-07-28T07:44:36.286Z,1.30
2022-07-28T07:47:04.122Z,1.40
2022-07-28T07:49:45.294Z,1.50
2022-07-28T07:52:14.244Z,0.90
2022-07-28T07:54:42.017Z,1.23
2022-07-28T07:57:10.294Z,1.25
2022-07-28T07:59:37.929Z,1.48
2022-07-28T08:02:05.465Z,1.30
2022-07-28T08:04:37.524Z,1.35
2022-07-28T08:07:06.419Z,1.17
2022-07-28T08:09:34.411Z,1.50
2022-07-28T08:12:01.324Z,1.20
2022-07-28T08:14:28.584Z,1.00
2022-07-28T08:16:59.704Z,1.30
2022-07-28T08:19:26.969Z,1.35
2022-07-28T08:21:55.578Z,1.40
2022-07-28T08:24:32.720Z,1.40
2022-07-28T08:27:02.047Z,1.35
2022-07-28T08:29:28.979Z,1.30
2022-07-28T08:31:56.292Z,1.48
2022-07-28T08:34:31.130Z,1.25
2022-07-28T08:37:02.281Z,1.10
2022-07-28T08:39:30.936Z,1.30
2022-07-28T08:42:18.495Z,1.45
2022-07-28T08:44:55.361Z,1.20
2022-07-28T08:47:22.492Z,1.10
2022-07-28T08:49:51.081Z,1.20
2022-07-28T08:52:20.664Z,1.23
2022-07-28T08:54:48.764Z,1.30
2022-07-28T08:57:26.991Z,0.98
2022-07-28T08:59:54.611Z,1.25
2022-07-28T09:02:22.731Z,1.20
2022-07-28T09:04:50.950Z,1.20
2022-07-28T09:07:18.297Z,1.48
2022-07-28T09:09:48.533Z,1.20
2022-07-28T09:12:15.622Z,1.25
2022-07-28T09:14:42.680Z,1.20
2022-07-28T09:17:09.952Z,1.30
2022-07-28T09:19:39.764Z,1.25
2022-07-28T09:22:07.578Z,1.65
2022-07-28T09:24:44.899Z,1.30
2022-07-28T09:27:13.877Z,1.40
2022-07-28T09:29:45.909Z,1.13
2022-07-28T09:32:17.396Z,1.30
2022-07-28T09:34:46.191Z,1.50
2022-07-28T09:37:27.822Z,1.20
2022-07-28T09:39:59.329Z,1.13
2022-07-28T09:42:26.797Z,1.25
2022-07-28T09:45:22.516Z,1.52
2022-07-28T09:48:08.980Z,1.20
2022-07-28T09:50:36.061Z,1.45
2022-07-28T09:53:23.909Z,1.42
2022-07-28T09:56:02.089Z,1.33
2022-07-28T09:58:30.497Z,1.20
2022-07-28T10:01:13.080Z,1.10
2022-07-28T10:03:41.966Z,1.10
2022-07-28T10:06:15.028Z,1.00
2022-07-28T10:08:49.925Z,1.67
2022-07-28T10:11:19.242Z,1.23
2022-07-28T10:13:54.457Z,1.17
2022-07-28T10:16:22.593Z,1.40
2022-07-28T10:18:49.810Z,1.58
2022-07-28T10:21:18.700Z,0.93
2022-07-28T10:23:48.551Z,1.20
2022-07-28T10:26:16.517Z,1.20
2022-07-28T10:28:49.178Z,1.40
2022-07-28T10:31:41.820Z,1.58
2022-07-28T10:34:15.753Z,1.38
2022-07-28T10:36:44.836Z,1.13
2022-07-28T10:39:23.461Z,1.35
2022-07-28T10:41:51.137Z,1.08
2022-07-28T10:44:19.980Z,1.17
2022-07-28T10:46:47.412Z,1.45
2022-07-28T10:49:15.054Z,0.98
2022-07-28T10:52:08.803Z,1.48
2022-07-28T10:54:38.006Z,1.02
2022-07-28T10:57:11.218Z,0.95
2022-07-28T10:59:44.672Z,1.20
2022-07-28T11:02:47.438Z,1.10
2022-07-28T11:05:40.855Z,1.02
2022-07-28T11:08:09.798Z,1.13
2022-07-28T11:10:48.373Z,1.35
2022-07-28T11:13:29.297Z,1.13
2022-07-28T11:16:15.654Z,0.85
2022-07-28T11:19:36.578Z,0.90
2022-07-28T11:22:22.352Z,1.05
2022-07-28T11:24:58.731Z,0.90
2022-07-28T11:27:41.163Z,0.98
2022-07-28T11:30:35.853Z,1.05
2022-07-28T11:33:05.256Z,1.10
2022-07-28T11:35:53.546Z,1.20
2022-07-28T11:38:21.586Z,0.70
2022-07-28T11:40:51.929Z,1.13
2022-07-28T11:43:35.985Z,1.08
2022-07-28T11:46:09.861Z,0.90
2022-07-28T11:48:42.565Z,1.05
2022-07-28T11:51:11.218Z,0.90
2022-07-28T11:53:53.039Z,0.88
2022-07-28T11:56:29.388Z,1.00
2022-07-28T11:59:01.095Z,1.00
2022-07-28T12:01:32.080Z,1.27
2022-07-28T12:04:00.232Z,1.15
2022-07-28T12:06:39.115Z,0.95
2022-07-28T12:09:07.749Z,1.05
2022-07-28T12:11:36.887Z,1.00
2022-07-28T12:14:17.574Z,0.88
2022-07-28T12:16:46.295Z,0.75
2022-07-28T12:19:18.096Z,1.05
2022-07-28T12:21:49.299Z,0.80
2022-07-28T12:24:28.117Z,0.85
2022-07-28T12:26:55.569Z,1.02
2022-07-28T12:29:23.903Z,0.77
2022-07-28T12:31:56.817Z,1.00
2022-07-28T12:34:28.735Z,0.95
2022-07-28T12:37:04.537Z,1.05
2022-07-28T12:39:34.532Z,0.70
2022-07-28T12:42:06.408Z,0.90
2022-07-28T12:44:39.267Z,1.05
2022-07-28T12:47:08.371Z,0.80
2022-07-28T12:49:36.565Z,0.98
2022-07-28T12:52:22.465Z,1.00
2022-07-28T12:54:54.950Z,0.90
2022-07-28T12:57:48.129Z,0.80
2022-07-28T13:00:19.609Z,0.88
2022-07-28T13:02:48.232Z,0.88
2022-07-28T13:05:28.128Z,0.65
2022-07-28T13:08:06.213Z,1.20
2022-07-28T13:10:33.306Z,0.82
2022-07-28T13:13:09.312Z,0.60
2022-07-28T13:15:36.310Z,0.88
2022-07-28T13:18:05.078Z,0.80
2022-07-28T13:20:36.730Z,0.80
2022-07-28T13:23:03.677Z,0.88
2022-07-28T13:25:30.789Z,1.00
2022-07-28T13:27:59.052Z,0.88
2022-07-28T13:30:26.075Z,0.80
2022-07-28T13:32:54.789Z,0.90
2022-07-28T13:35:22.519Z,0.90
2022-07-28T13:37:50.107Z,0.80
2022-07-28T13:40:17.471Z,0.73
2022-07-28T13:42:52.940Z,0.93
2022-07-28T13:45:23.727Z,0.70
2022-07-28T13:47:52.304Z,0.90
2022-07-28T13:50:20.671Z,0.70
2022-07-28T13:52:48.620Z,0.60
2022-07-28T13:55:17.656Z,0.73
2022-07-28T13:57:49.078Z,0.80
2022-07-28T14:00:18.608Z,0.80
2022-07-28T14:02:48.821Z,0.70
2022-07-28T14:05:16.285Z,0.98
2022-07-28T14:07:48.430Z,0.60
2022-07-28T14:10:16.813Z,1.23
2022-07-28T14:12:44.924Z,0.80
2022-07-28T14:15:13.459Z,0.63
2022-07-28T14:17:43.364Z,0.82
2022-07-28T14:20:16.353Z,0.80
2022-07-28T14:22:44.418Z,0.82
2022-07-28T14:25:19.416Z,0.90
2022-07-28T14:27:49.404Z,1.13
2022-07-28T14:30:16.906Z,1.00
2022-07-28T14:32:43.958Z,1.20
2022-07-28T14:35:11.132Z,0.82
2022-07-28T14:37:55.492Z,0.77
2022-07-28T14:40:25.907Z,0.90
2022-07-28T14:42:52.781Z,0.75
2022-07-28T14:45:19.798Z,0.65
2022-07-28T14:47:46.939Z,0.70
2022-07-28T14:50:14.095Z,0.80
2022-07-28T14:52:41.066Z,0.68
2022-07-28T14:55:13.108Z,0.75
2022-07-28T14:57:52.004Z,0.70
2022-07-28T15:00:23.693Z,0.80
2022-07-28T15:02:52.864Z,1.08
2022-07-28T15:05:20.858Z,0.90
2022-07-28T15:07:49.514Z,0.82
2022-07-28T15:10:16.523Z,0.65
2022-07-28T15:12:43.764Z,0.98
2022-07-28T15:15:11.347Z,0.90
2022-07-28T15:17:38.320Z,1.08
2022-07-28T15:20:06.720Z,0.80
2022-07-28T15:22:34.216Z,0.88
2022-07-28T15:25:01.116Z,0.70
2022-07-28T15:27:33.202Z,1.00
2022-07-28T15:30:02.803Z,1.02
2022-07-28T15:32:31.130Z,0.93
2022-07-28T15:34:58.696Z,0.73
2022-07-28T15:37:27.310Z,0.80
2022-07-28T15:39:54.317Z,0.65
2022-07-28T15:42:21.195Z,0.70
2022-07-28T15:44:49.391Z,0.90
2022-07-28T15:47:16.640Z,0.70
2022-07-28T15:49:43.843Z,0.70
2022-07-28T15:52:11.080Z,1.05
2022-07-28T15:54:38.024Z,1.00
2022-07-28T15:57:04.918Z,0.70
2022-07-28T15:59:50.243Z,1.17
2022-07-28T16:02:19.309Z,0.75
2022-07-28T16:04:51.094Z,0.98
2022-07-28T16:07:26.562Z,1.10
2022-07-28T16:09:57.530Z,1.10
2022-07-28T16:12:25.544Z,1.10
2022-07-28T16:14:54.164Z,0.90
2022-07-28T16:17:22.447Z,0.90
2022-07-28T16:19:51.187Z,1.20
2022-07-28T16:22:19.093Z,1.27
2022-07-28T16:24:46.886Z,1.17
2022-07-28T16:27:14.727Z,0.70
2022-07-28T16:29:42.007Z,1.02
2022-07-28T16:32:09.287Z,0.85
2022-07-28T16:34:36.268Z,1.10
2022-07-28T16:37:05.804Z,1.10
2022-07-28T16:39:34.351Z,0.93
2022-07-28T16:42:01.795Z,0.95
2022-07-28T16:44:29.107Z,0.80
2022-07-28T16:46:56.700Z,0.80
2022-07-28T16:49:24.267Z,0.90
2022-07-28T16:51:51.478Z,0.70
2022-07-28T16:54:19.420Z,0.80
2022-07-28T16:56:46.809Z,1.00
2022-07-28T16:59:13.891Z,0.85
2022-07-28T17:01:45.809Z,0.70
2022-07-28T17:04:17.716Z,1.10
2022-07-28T17:06:45.978Z,1.15
2022-07-28T17:09:15.784Z,1.20
2022-07-28T17:11:43.277Z,1.10
2022-07-28T17:14:11.288Z,1.10
2022-07-28T17:16:38.734Z,0.98
2022-07-28T17:19:05.675Z,1.00
2022-07-28T17:21:32.839Z,0.90
2022-07-28T17:23:59.764Z,1.20
2022-07-28T17:27:33.628Z,1.30
2022-07-28T17:29:14.187Z,1.08
2022-07-28T17:31:43.439Z,1.15
2022-07-28T17:34:10.490Z,1.15
2022-07-28T17:36:41.299Z,1.10
2022-07-28T17:39:09.182Z,1.15
2022-07-28T17:41:36.258Z,1.20
2022-07-28T17:44:03.607Z,1.30
2022-07-28T17:46:30.714Z,1.23
2022-07-28T17:48:58.695Z,1.10
2022-07-28T17:51:26.846Z,1.10
2022-07-28T17:53:54.840Z,1.10
2022-07-28T17:56:22.630Z,1.25
2022-07-28T17:58:49.935Z,1.10
2022-07-28T18:01:17.146Z,1.25
2022-07-28T18:03:58.832Z,1.10
2022-07-28T18:06:29.671Z,1.13
2022-07-28T18:08:57.064Z,1.20
2022-07-28T18:11:24.576Z,1.00
2022-07-28T18:14:04.560Z,2.65
2022-07-28T18:16:34.380Z,1.30
2022-07-28T18:19:02.578Z,1.00
2022-07-28T18:21:29.656Z,2.00
2022-07-28T18:23:56.637Z,4.03
2022-07-28T18:26:23.745Z,7.47
2022-07-28T18:28:50.884Z,6.93
2022-07-28T18:31:17.870Z,6.88
2022-07-28T18:33:45.010Z,5.57
2022-07-28T18:36:11.919Z,3.85
2022-07-28T18:38:38.902Z,2.92
2022-07-28T18:41:06.278Z,2.60
2022-07-28T18:43:33.300Z,17.73
2022-07-28T18:46:00.433Z,13.32
2022-07-28T18:48:27.557Z,18.05
2022-07-28T18:50:54.540Z,25.02
2022-07-28T18:53:21.538Z,46.83
2022-07-28T18:55:48.901Z,44.90
2022-07-28T18:58:15.790Z,59.60
2022-07-28T19:00:42.761Z,25.90
2022-07-28T19:03:09.857Z,24.17
2022-07-28T19:05:37.455Z,31.77
2022-07-28T19:08:05.794Z,7.07
2022-07-28T19:10:32.946Z,5.70
2022-07-28T19:12:59.932Z,7.57
2022-07-28T19:15:26.867Z,5.15
2022-07-28T19:18:08.909Z,3.47
2022-07-28T19:20:42.466Z,12.75
2022-07-28T19:23:09.635Z,13.00
2022-07-28T19:25:38.915Z,26.70
2022-07-28T19:28:06.167Z,23.73
2022-07-28T19:30:34.142Z,22.08
2022-07-28T19:33:01.196Z,13.02
2022-07-28T19:35:28.122Z,11.95
2022-07-28T19:37:59.719Z,9.63
2022-07-28T19:40:29.270Z,14.55
2022-07-28T19:42:57.545Z,13.55
2022-07-28T19:45:24.970Z,15.05
2022-07-28T19:47:51.902Z,17.00
2022-07-28T19:50:19.138Z,16.90
2022-07-28T19:52:46.325Z,16.67
2022-07-28T19:55:16.000Z,21.25
2022-07-28T19:57:45.521Z,17.27
2022-07-28T20:00:13.011Z,21.77
2022-07-28T20:02:40.345Z,24.77
2022-07-28T20:05:08.697Z,28.20
2022-07-28T20:07:36.344Z,20.55
2022-07-28T20:10:04.067Z,31.25
2022-07-28T20:12:36.189Z,24.70
2022-07-28T20:15:07.072Z,24.35
2022-07-28T20:17:39.349Z,24.80
2022-07-28T20:20:11.993Z,23.40
2022-07-28T20:22:42.053Z,26.70
2022-07-28T20:25:10.058Z,31.55
2022-07-28T20:27:41.663Z,35.58
2022-07-28T20:30:10.760Z,29.92
2022-07-28T20:32:38.265Z,28.08
2022-07-28T20:35:08.563Z,25.85
2022-07-28T20:37:37.670Z,24.42
2022-07-28T20:40:09.344Z,25.67
2022-07-28T20:42:36.992Z,28.35
2022-07-28T20:45:05.512Z,24.02
2022-07-28T20:47:32.997Z,24.13
2022-07-28T20:50:01.028Z,24.55
2022-07-28T20:52:27.996Z,23.85
2022-07-28T20:54:55.375Z,29.38
2022-07-28T20:57:23.180Z,29.60
2022-07-28T20:59:52.280Z,35.35
2022-07-28T21:02:20.356Z,36.33
2022-07-28T21:04:50.472Z,40.78
2022-07-28T21:08:00.391Z,45.38
2022-07-28T21:10:07.347Z,45.20
2022-07-28T21:12:35.062Z,34.28
2022-07-28T21:15:02.191Z,34.08
2022-07-28T21:17:29.359Z,33.78
2022-07-28T21:19:56.298Z,33.15
2022-07-28T21:22:23.433Z,31.92
2022-07-28T21:24:55.429Z,29.65
2022-07-28T21:27:23.351Z,29.67
2022-07-28T21:32:18.357Z,24.98
2022-07-28T21:34:45.301Z,24.50
2022-07-28T21:37:13.014Z,23.02
2022-07-28T21:39:40.691Z,23.13
2022-07-28T21:42:08.704Z,25.38
2022-07-28T21:44:37.324Z,20.27
2022-07-28T21:47:04.525Z,20.10
2022-07-28T21:49:32.389Z,18.92
2022-07-28T21:51:59.648Z,22.35
2022-07-28T21:54:27.725Z,20.00
2022-07-28T21:56:54.714Z,19.38
2022-07-28T21:59:21.602Z,18.50
2022-07-28T22:01:48.912Z,20.15
2022-07-28T22:04:16.305Z,23.08
2022-07-28T22:06:46.281Z,20.42
2022-07-28T22:09:14.817Z,20.42
2022-07-28T22:11:42.115Z,19.70
2022-07-28T22:14:09.345Z,19.77
2022-07-28T22:16:36.886Z,20.92
2022-07-28T22:19:04.125Z,20.40
2022-07-28T22:21:31.160Z,19.55
2022-07-28T22:23:58.242Z,16.98
2022-07-28T22:26:25.225Z,16.27
2022-07-28T22:28:52.101Z,14.55
2022-07-28T22:31:19.392Z,16.52
2022-07-28T22:33:46.311Z,15.20
2022-07-28T22:36:13.323Z,16.58
2022-07-28T22:38:40.488Z,17.17
2022-07-28T22:41:07.470Z,17.90
2022-07-28T22:43:34.601Z,16.42
2022-07-28T22:46:02.109Z,15.13
2022-07-28T22:48:29.209Z,16.23
2022-07-28T22:50:56.186Z,15.00
2022-07-28T22:53:23.345Z,14.32
2022-07-28T22:58:35.559Z,17.58
2022-07-28T23:01:03.682Z,18.35
2022-07-28T23:03:32.859Z,16.58
2022-07-28T23:06:01.049Z,14.57
2022-07-28T23:08:28.494Z,12.35
2022-07-28T23:10:55.600Z,12.70
2022-07-28T23:13:22.874Z,13.65
2022-07-28T23:15:50.477Z,14.05
2022-07-28T23:18:17.622Z,13.98
2022-07-28T23:20:45.184Z,15.50
2022-07-28T23:23:12.551Z,15.00
2022-07-28T23:25:42.686Z,13.70
2022-07-28T23:28:10.892Z,14.73
2022-07-28T23:30:38.236Z,14.57
2022-07-28T23:33:05.883Z,14.65
2022-07-28T23:35:33.840Z,15.73
2022-07-28T23:38:00.732Z,15.55
2022-07-28T23:40:27.847Z,16.35
2022-07-28T23:42:54.950Z,17.40
2022-07-28T23:45:21.921Z,16.75
2022-07-28T23:47:48.824Z,15.30
2022-07-28T23:50:15.967Z,16.05
2022-07-28T23:52:42.903Z,13.55
2022-07-28T23:55:09.938Z,13.23
2022-07-28T23:57:37.113Z,12.02
